LICJ/PMO METAR and TAF weather

Enter ICAO airport designator
Station Type Date Time Source
LICJ METAR 2020/12/05 04:50 UTC NOAA

LICJ 050450Z 18020G40KT 140V200 9999 FEW030 18/08 Q1003


Station Type Date Time Source
LICJ Decoded METAR 2020/12/05 04:50 UTC NOAA

Palermo / Punta Raisi, Italy (LICJ) 38-11N 013-06E 21M
Dec 04, 2020 - 11:50 PM EST / 2020.12.05 0450 UTC
Wind: from the S (180 degrees) at 23 MPH (20 KT) gusting to 46 MPH (40 KT) (direction variable):0
Visibility: greater than 7 mile(s):0
Sky conditions: mostly clear
Temperature: 64 F (18 C)
Dew Point: 46 F (8 C)
Relative Humidity: 51%
Pressure (altimeter): 29.62 in. Hg (1003 hPa)
ob: LICJ 050450Z 18020G40KT 140V200 9999 FEW030 18/08 Q1003
cycle: 5

Station Type Date Time Source
LICJ TAF 2020/12/05 06:20 UTC NOAA

TAF LICJ 050500Z 0506/0606 19025G35KT 9999 SCT030
BECMG 0514/0516 17016KT
TEMPO 0520/0606 4000 TSRA
BECMG 0602/0604 25016KT

Example: see airport list